PWSweather.com
Personal Weather Stations
Station Observations
CANDIOTINO
Barrio Candioti Norte, Santa FeAR 3000

Barrio Candioti NorteSanta FeAR 3000

Lat: -31.632778, Lon: -60.695556

Elevation: 69

Station Type: WH-1081

http://www.eltiempoensantafe.com.ar

High Low Average
Temperature 81.3°F27.4°C 57.2°F14.0°C 66.4°F19.1°C
Dew Point 63.2°F17.3°C 51.1°F10.6°C 58.2°F14.6°C
Winds 8.3 mph 13.4 kmh Calm Calm 2.0 mph E3.2 kmh E
Wind Gusts 13.0 mph20.9 kmh 1.6 mph2.6 kmh 5.0 mph8.0 kmh
Humidity 91% 52% 76%
Pressure 29.95 in1014.2 mb 29.73 in1006.8 mb -
Precipitation 0.00 in0.0 mm - -
Hour Temp Dew Point Humidity Winds Wind Gusts Pressure Precip Precip Rate Daily Precip Total
12:00 AM 59.5°F15.3°C 51.3°F10.7°C 74% Calm Calm 2.2 mph3.5 kmh 29.93 in1013.5 mb 0.00 in0.0 mm 0.00 in0.0 mm 0.00 in0.0 mm
12:15 AM 59.4°F15.2°C 51.4°F10.8°C 75% 0.7 mph E1.1 kmh E 2.2 mph3.5 kmh 29.94 in1013.9 mb 0.00 in0.0 mm 0.00 in0.0 mm 0.00 in0.0 mm
12:30 AM 58.8°F14.9°C 51.6°F10.9°C 77% 0.7 mph E1.1 kmh E 2.2 mph3.5 kmh 29.93 in1013.5 mb 0.00 in0.0 mm 0.00 in0.0 mm 0.00 in0.0 mm
12:45 AM 58.5°F14.7°C 51.6°F10.9°C 78% Calm Calm 1.6 mph2.6 kmh 29.94 in1013.9 mb 0.00 in0.0 mm 0.00 in0.0 mm 0.00 in0.0 mm
01:00 AM 58.1°F14.5°C 51.6°F10.9°C 79% 0.7 mph ENE1.1 kmh ENE 2.2 mph3.5 kmh 29.94 in1013.9 mb 0.00 in0.0 mm 0.00 in0.0 mm 0.00 in0.0 mm
01:15 AM 57.7°F14.3°C 51.3°F10.7°C 79% Calm Calm 1.6 mph2.6 kmh 29.94 in1013.9 mb 0.00 in0.0 mm 0.00 in0.0 mm 0.00 in0.0 mm
01:30 AM 57.7°F14.3°C 51.3°F10.7°C 79% Calm Calm 3.1 mph5.0 kmh 29.93 in1013.5 mb 0.00 in0.0 mm 0.00 in0.0 mm 0.00 in0.0 mm
01:45 AM 57.6°F14.2°C 51.1°F10.6°C 79% Calm Calm 2.2 mph3.5 kmh 29.93 in1013.5 mb 0.00 in0.0 mm 0.00 in0.0 mm 0.00 in0.0 mm
02:00 AM 57.6°F14.2°C 51.4°F10.8°C 80% 0.7 mph NE1.1 kmh NE 3.1 mph5.0 kmh 29.94 in1013.9 mb 0.00 in0.0 mm 0.00 in0.0 mm 0.00 in0.0 mm
02:15 AM 58.1°F14.5°C 52.0°F11.1°C 80% 0.7 mph NE1.1 kmh NE 3.1 mph5.0 kmh 29.94 in1013.9 mb 0.00 in0.0 mm 0.00 in0.0 mm 0.00 in0.0 mm
02:30 AM 58.3°F14.6°C 51.8°F11.0°C 79% 1.6 mph NE2.6 kmh NE 3.1 mph5.0 kmh 29.93 in1013.5 mb 0.00 in0.0 mm 0.00 in0.0 mm 0.00 in0.0 mm
02:45 AM 58.1°F14.5°C 51.6°F10.9°C 79% Calm Calm 2.2 mph3.5 kmh 29.93 in1013.5 mb 0.00 in0.0 mm 0.00 in0.0 mm 0.00 in0.0 mm
03:00 AM 58.1°F14.5°C 52.0°F11.1°C 80% 1.6 mph NE2.6 kmh NE 3.8 mph6.1 kmh 29.92 in1013.2 mb 0.00 in0.0 mm 0.00 in0.0 mm 0.00 in0.0 mm
03:15 AM 57.9°F14.4°C 52.1°F11.2°C 81% 0.7 mph NE1.1 kmh NE 3.1 mph5.0 kmh 29.92 in1013.2 mb 0.00 in0.0 mm 0.00 in0.0 mm 0.00 in0.0 mm
03:30 AM 57.9°F14.4°C 52.5°F11.4°C 82% 0.7 mph NE1.1 kmh NE 3.1 mph5.0 kmh 29.92 in1013.2 mb 0.00 in0.0 mm 0.00 in0.0 mm 0.00 in0.0 mm
03:45 AM 58.1°F14.5°C 52.6°F11.4°C 82% 2.2 mph E3.5 kmh E 5.4 mph8.7 kmh 29.92 in1013.2 mb 0.00 in0.0 mm 0.00 in0.0 mm 0.00 in0.0 mm
04:00 AM 58.3°F14.6°C 52.8°F11.6°C 82% 0.7 mph ESE1.1 kmh ESE 3.1 mph5.0 kmh 29.91 in1012.9 mb 0.00 in0.0 mm 0.00 in0.0 mm 0.00 in0.0 mm
04:15 AM 58.3°F14.6°C 53.2°F11.8°C 83% 0.7 mph SE1.1 kmh SE 3.1 mph5.0 kmh 29.92 in1013.2 mb 0.00 in0.0 mm 0.00 in0.0 mm 0.00 in0.0 mm
04:30 AM 58.3°F14.6°C 53.5°F11.9°C 84% 0.7 mph SE1.1 kmh SE 2.2 mph3.5 kmh 29.91 in1012.9 mb 0.00 in0.0 mm 0.00 in0.0 mm 0.00 in0.0 mm
04:45 AM 58.6°F14.8°C 54.2°F12.3°C 85% 1.6 mph SE2.6 kmh SE 3.8 mph6.1 kmh 29.91 in1012.9 mb 0.00 in0.0 mm 0.00 in0.0 mm 0.00 in0.0 mm
05:00 AM 59.0°F15.0°C 54.5°F12.5°C 85% 1.6 mph ENE2.6 kmh ENE 5.4 mph8.7 kmh 29.91 in1012.9 mb 0.00 in0.0 mm 0.00 in0.0 mm 0.00 in0.0 mm
05:15 AM 59.2°F15.1°C 54.7°F12.6°C 85% 1.6 mph ENE2.6 kmh ENE 4.5 mph7.2 kmh 29.91 in1012.9 mb 0.00 in0.0 mm 0.00 in0.0 mm 0.00 in0.0 mm
05:30 AM 59.0°F15.0°C 54.5°F12.5°C 85% 1.6 mph ENE2.6 kmh ENE 3.1 mph5.0 kmh 29.91 in1012.9 mb 0.00 in0.0 mm 0.00 in0.0 mm 0.00 in0.0 mm
05:45 AM 58.8°F14.9°C 55.0°F12.8°C 87% 1.6 mph NE2.6 kmh NE 3.8 mph6.1 kmh 29.91 in1012.9 mb 0.00 in0.0 mm 0.00 in0.0 mm 0.00 in0.0 mm
06:00 AM 58.5°F14.7°C 54.6°F12.6°C 87% 1.6 mph NE2.6 kmh NE 3.8 mph6.1 kmh 29.92 in1013.2 mb 0.00 in0.0 mm 0.00 in0.0 mm 0.00 in0.0 mm
06:15 AM 57.9°F14.4°C 54.4°F12.4°C 88% Calm Calm 3.1 mph5.0 kmh 29.91 in1012.9 mb 0.00 in0.0 mm 0.00 in0.0 mm 0.00 in0.0 mm
06:30 AM 57.7°F14.3°C 54.2°F12.3°C 88% Calm Calm 2.2 mph3.5 kmh 29.91 in1012.9 mb 0.00 in0.0 mm 0.00 in0.0 mm 0.00 in0.0 mm
06:45 AM 57.7°F14.3°C 54.5°F12.5°C 89% 0.7 mph ENE1.1 kmh ENE 3.1 mph5.0 kmh 29.92 in1013.2 mb 0.00 in0.0 mm 0.00 in0.0 mm 0.00 in0.0 mm
07:00 AM 57.6°F14.2°C 54.4°F12.4°C 89% Calm Calm 3.1 mph5.0 kmh 29.92 in1013.2 mb 0.00 in0.0 mm 0.00 in0.0 mm 0.00 in0.0 mm
07:15 AM 57.6°F14.2°C 54.7°F12.6°C 90% Calm Calm 1.6 mph2.6 kmh 29.93 in1013.5 mb 0.00 in0.0 mm 0.00 in0.0 mm 0.00 in0.0 mm
07:30 AM 57.4°F14.1°C 54.5°F12.5°C 90% 0.7 mph ENE1.1 kmh ENE 2.2 mph3.5 kmh 29.92 in1013.2 mb 0.00 in0.0 mm 0.00 in0.0 mm 0.00 in0.0 mm
07:45 AM 57.2°F14.0°C 54.3°F12.4°C 90% 0.7 mph E1.1 kmh E 2.2 mph3.5 kmh 29.92 in1013.2 mb 0.00 in0.0 mm 0.00 in0.0 mm 0.00 in0.0 mm
08:00 AM 57.4°F14.1°C 54.8°F12.7°C 91% Calm Calm 3.1 mph5.0 kmh 29.93 in1013.5 mb 0.00 in0.0 mm 0.00 in0.0 mm 0.00 in0.0 mm
08:15 AM 57.7°F14.3°C 55.1°F12.8°C 91% 0.7 mph ESE1.1 kmh ESE 2.2 mph3.5 kmh 29.94 in1013.9 mb 0.00 in0.0 mm 0.00 in0.0 mm 0.00 in0.0 mm
08:30 AM 58.1°F14.5°C 55.5°F13.1°C 91% 0.7 mph NE1.1 kmh NE 1.6 mph2.6 kmh 29.93 in1013.5 mb 0.00 in0.0 mm 0.00 in0.0 mm 0.00 in0.0 mm
08:45 AM 58.3°F14.6°C 55.7°F13.2°C 91% 1.6 mph E2.6 kmh E 3.8 mph6.1 kmh 29.93 in1013.5 mb 0.00 in0.0 mm 0.00 in0.0 mm 0.00 in0.0 mm
09:00 AM 58.3°F14.6°C 55.7°F13.2°C 91% 0.7 mph ESE1.1 kmh ESE 3.1 mph5.0 kmh 29.94 in1013.9 mb 0.00 in0.0 mm 0.00 in0.0 mm 0.00 in0.0 mm
09:15 AM 59.2°F15.1°C 56.3°F13.5°C 90% 0.7 mph E1.1 kmh E 4.5 mph7.2 kmh 29.95 in1014.2 mb 0.00 in0.0 mm 0.00 in0.0 mm 0.00 in0.0 mm
09:30 AM 60.1°F15.6°C 57.2°F14.0°C 90% 0.7 mph E1.1 kmh E 2.2 mph3.5 kmh 29.95 in1014.2 mb 0.00 in0.0 mm 0.00 in0.0 mm 0.00 in0.0 mm
09:45 AM 60.4°F15.8°C 56.9°F13.8°C 88% 1.6 mph NE2.6 kmh NE 4.5 mph7.2 kmh 29.95 in1014.2 mb 0.00 in0.0 mm 0.00 in0.0 mm 0.00 in0.0 mm
10:00 AM 61.2°F16.2°C 57.0°F13.9°C 86% 0.7 mph ENE1.1 kmh ENE 3.1 mph5.0 kmh 29.95 in1014.2 mb 0.00 in0.0 mm 0.00 in0.0 mm 0.00 in0.0 mm
10:15 AM 61.9°F16.6°C 57.3°F14.1°C 85% 1.6 mph NE2.6 kmh NE 5.4 mph8.7 kmh 29.95 in1014.2 mb 0.00 in0.0 mm 0.00 in0.0 mm 0.00 in0.0 mm
10:30 AM 65.7°F18.7°C 60.4°F15.8°C 83% 1.6 mph E2.6 kmh E 4.5 mph7.2 kmh 29.94 in1013.9 mb 0.00 in0.0 mm 0.00 in0.0 mm 0.00 in0.0 mm
10:45 AM 64.8°F18.2°C 57.4°F14.1°C 77% 2.2 mph N3.5 kmh N 4.5 mph7.2 kmh 29.93 in1013.5 mb 0.00 in0.0 mm 0.00 in0.0 mm 0.00 in0.0 mm
11:00 AM 64.2°F17.9°C 57.6°F14.2°C 79% 2.2 mph N3.5 kmh N 5.4 mph8.7 kmh 29.94 in1013.9 mb 0.00 in0.0 mm 0.00 in0.0 mm 0.00 in0.0 mm
11:15 AM 69.4°F20.8°C 59.7°F15.4°C 71% 3.1 mph N5.0 kmh N 4.5 mph7.2 kmh 29.93 in1013.5 mb 0.00 in0.0 mm 0.00 in0.0 mm 0.00 in0.0 mm
11:30 AM 71.6°F22.0°C 59.7°F15.4°C 66% 1.6 mph ENE2.6 kmh ENE 3.8 mph6.1 kmh 29.92 in1013.2 mb 0.00 in0.0 mm 0.00 in0.0 mm 0.00 in0.0 mm
11:45 AM 72.1°F22.3°C 59.3°F15.2°C 64% 3.8 mph NE6.1 kmh NE 8.3 mph13.4 kmh 29.91 in1012.9 mb 0.00 in0.0 mm 0.00 in0.0 mm 0.00 in0.0 mm
12:00 PM 72.0°F22.2°C 59.6°F15.3°C 65% 5.4 mph N8.7 kmh N 9.8 mph15.8 kmh 29.91 in1012.9 mb 0.00 in0.0 mm 0.00 in0.0 mm 0.00 in0.0 mm
12:15 PM 72.9°F22.7°C 60.4°F15.8°C 65% 4.5 mph N7.2 kmh N 10.7 mph17.2 kmh 29.91 in1012.9 mb 0.00 in0.0 mm 0.00 in0.0 mm 0.00 in0.0 mm
12:30 PM 73.4°F23.0°C 60.5°F15.8°C 64% 5.4 mph N8.7 kmh N 10.7 mph17.2 kmh 29.91 in1012.9 mb 0.00 in0.0 mm 0.00 in0.0 mm 0.00 in0.0 mm
12:45 PM 73.6°F23.1°C 60.7°F15.9°C 64% 8.3 mph N13.4 kmh N 10.7 mph17.2 kmh 29.90 in1012.5 mb 0.00 in0.0 mm 0.00 in0.0 mm 0.00 in0.0 mm
01:00 PM 74.8°F23.8°C 61.4°F16.3°C 63% 4.5 mph N7.2 kmh N 11.4 mph18.3 kmh 29.89 in1012.2 mb 0.00 in0.0 mm 0.00 in0.0 mm 0.00 in0.0 mm
01:15 PM 76.5°F24.7°C 61.1°F16.2°C 59% 4.5 mph N7.2 kmh N 13.0 mph20.9 kmh 29.88 in1011.9 mb 0.00 in0.0 mm 0.00 in0.0 mm 0.00 in0.0 mm
01:30 PM 77.5°F25.3°C 61.6°F16.4°C 58% 7.6 mph N12.2 kmh N 13.0 mph20.9 kmh 29.87 in1011.5 mb 0.00 in0.0 mm 0.00 in0.0 mm 0.00 in0.0 mm
01:45 PM 76.1°F24.5°C 62.2°F16.8°C 62% 6.0 mph N9.7 kmh N 13.0 mph20.9 kmh 29.86 in1011.2 mb 0.00 in0.0 mm 0.00 in0.0 mm 0.00 in0.0 mm
02:00 PM 75.7°F24.3°C 61.8°F16.6°C 62% 8.3 mph N13.4 kmh N 10.7 mph17.2 kmh 29.85 in1010.8 mb 0.00 in0.0 mm 0.00 in0.0 mm 0.00 in0.0 mm
02:15 PM 77.0°F25.0°C 62.1°F16.7°C 60% 6.9 mph N11.1 kmh N 13.0 mph20.9 kmh 29.84 in1010.5 mb 0.00 in0.0 mm 0.00 in0.0 mm 0.00 in0.0 mm
02:30 PM 79.7°F26.5°C 62.1°F16.7°C 55% 3.8 mph N6.1 kmh N 8.3 mph13.4 kmh 29.83 in1010.2 mb 0.00 in0.0 mm 0.00 in0.0 mm 0.00 in0.0 mm
02:45 PM 81.3°F27.4°C 62.1°F16.7°C 52% 5.4 mph N8.7 kmh N 8.3 mph13.4 kmh 29.81 in1009.5 mb 0.00 in0.0 mm 0.00 in0.0 mm 0.00 in0.0 mm
03:00 PM 79.5°F26.4°C 62.0°F16.7°C 55% 6.0 mph N9.7 kmh N 9.8 mph15.8 kmh 29.81 in1009.5 mb 0.00 in0.0 mm 0.00 in0.0 mm 0.00 in0.0 mm
03:15 PM 79.3°F26.3°C 61.8°F16.6°C 55% 6.0 mph N9.7 kmh N 10.7 mph17.2 kmh 29.80 in1009.1 mb 0.00 in0.0 mm 0.00 in0.0 mm 0.00 in0.0 mm
03:30 PM 79.0°F26.1°C 62.0°F16.7°C 56% 3.8 mph N6.1 kmh N 9.8 mph15.8 kmh 29.80 in1009.1 mb 0.00 in0.0 mm 0.00 in0.0 mm 0.00 in0.0 mm
03:45 PM 79.2°F26.2°C 62.2°F16.8°C 56% 5.4 mph N8.7 kmh N 9.2 mph14.8 kmh 29.80 in1009.1 mb 0.00 in0.0 mm 0.00 in0.0 mm 0.00 in0.0 mm
04:00 PM 79.0°F26.1°C 61.5°F16.4°C 55% 3.8 mph N6.1 kmh N 9.2 mph14.8 kmh 29.78 in1008.5 mb 0.00 in0.0 mm 0.00 in0.0 mm 0.00 in0.0 mm
04:15 PM 79.0°F26.1°C 61.5°F16.4°C 55% 4.5 mph N7.2 kmh N 9.2 mph14.8 kmh 29.78 in1008.5 mb 0.00 in0.0 mm 0.00 in0.0 mm 0.00 in0.0 mm
04:30 PM 79.5°F26.4°C 62.0°F16.7°C 55% 4.5 mph N7.2 kmh N 11.4 mph18.3 kmh 29.77 in1008.1 mb 0.00 in0.0 mm 0.00 in0.0 mm 0.00 in0.0 mm
04:45 PM 78.6°F25.9°C 62.2°F16.8°C 57% 3.8 mph N6.1 kmh N 9.2 mph14.8 kmh 29.77 in1008.1 mb 0.00 in0.0 mm 0.00 in0.0 mm 0.00 in0.0 mm
05:00 PM 78.6°F25.9°C 62.2°F16.8°C 57% 3.8 mph N6.1 kmh N 6.0 mph9.7 kmh 29.76 in1007.8 mb 0.00 in0.0 mm 0.00 in0.0 mm 0.00 in0.0 mm
05:15 PM 79.0°F26.1°C 62.0°F16.7°C 56% 2.2 mph N3.5 kmh N 5.4 mph8.7 kmh 29.75 in1007.5 mb 0.00 in0.0 mm 0.00 in0.0 mm 0.00 in0.0 mm
05:30 PM 81.1°F27.3°C 63.0°F17.2°C 54% 0.7 mph NNE1.1 kmh NNE 3.8 mph6.1 kmh 29.75 in1007.5 mb 0.00 in0.0 mm 0.00 in0.0 mm 0.00 in0.0 mm
05:45 PM 77.7°F25.4°C 61.8°F16.6°C 58% 1.6 mph NE2.6 kmh NE 4.5 mph7.2 kmh 29.74 in1007.1 mb 0.00 in0.0 mm 0.00 in0.0 mm 0.00 in0.0 mm
06:00 PM 75.2°F24.0°C 62.2°F16.8°C 64% 0.7 mph N1.1 kmh N 3.1 mph5.0 kmh 29.75 in1007.5 mb 0.00 in0.0 mm 0.00 in0.0 mm 0.00 in0.0 mm
06:15 PM 73.6°F23.1°C 62.0°F16.7°C 67% Calm Calm 2.2 mph3.5 kmh 29.74 in1007.1 mb 0.00 in0.0 mm 0.00 in0.0 mm 0.00 in0.0 mm
06:30 PM 71.8°F22.1°C 61.5°F16.4°C 70% 1.6 mph NE2.6 kmh NE 4.5 mph7.2 kmh 29.73 in1006.8 mb 0.00 in0.0 mm 0.00 in0.0 mm 0.00 in0.0 mm
06:45 PM 70.9°F21.6°C 61.8°F16.6°C 73% Calm Calm 3.1 mph5.0 kmh 29.74 in1007.1 mb 0.00 in0.0 mm 0.00 in0.0 mm 0.00 in0.0 mm
07:00 PM 70.5°F21.4°C 61.5°F16.4°C 73% 0.7 mph E1.1 kmh E 1.6 mph2.6 kmh 29.74 in1007.1 mb 0.00 in0.0 mm 0.00 in0.0 mm 0.00 in0.0 mm
07:15 PM 70.2°F21.2°C 61.5°F16.4°C 74% 1.6 mph NE2.6 kmh NE 3.8 mph6.1 kmh 29.73 in1006.8 mb 0.00 in0.0 mm 0.00 in0.0 mm 0.00 in0.0 mm
07:30 PM 69.6°F20.9°C 61.7°F16.5°C 76% Calm Calm 3.1 mph5.0 kmh 29.73 in1006.8 mb 0.00 in0.0 mm 0.00 in0.0 mm 0.00 in0.0 mm
07:45 PM 69.1°F20.6°C 62.0°F16.7°C 78% 1.6 mph NE2.6 kmh NE 4.5 mph7.2 kmh 29.73 in1006.8 mb 0.00 in0.0 mm 0.00 in0.0 mm 0.00 in0.0 mm
08:00 PM 68.7°F20.4°C 62.0°F16.7°C 79% 0.7 mph NE1.1 kmh NE 4.5 mph7.2 kmh 29.73 in1006.8 mb 0.00 in0.0 mm 0.00 in0.0 mm 0.00 in0.0 mm
08:15 PM 68.4°F20.2°C 62.3°F16.8°C 81% 2.2 mph NNE3.5 kmh NNE 5.4 mph8.7 kmh 29.73 in1006.8 mb 0.00 in0.0 mm 0.00 in0.0 mm 0.00 in0.0 mm
08:30 PM 68.4°F20.2°C 63.0°F17.2°C 83% 3.1 mph NE5.0 kmh NE 5.4 mph8.7 kmh 29.73 in1006.8 mb 0.00 in0.0 mm 0.00 in0.0 mm 0.00 in0.0 mm
08:45 PM 68.4°F20.2°C 63.0°F17.2°C 83% 2.2 mph N3.5 kmh N 5.4 mph8.7 kmh 29.73 in1006.8 mb 0.00 in0.0 mm 0.00 in0.0 mm 0.00 in0.0 mm
09:00 PM 68.5°F20.3°C 63.2°F17.3°C 83% 3.1 mph NE5.0 kmh NE 6.0 mph9.7 kmh 29.73 in1006.8 mb 0.00 in0.0 mm 0.00 in0.0 mm 0.00 in0.0 mm
09:15 PM 68.4°F20.2°C 63.0°F17.2°C 83% 1.6 mph N2.6 kmh N 6.9 mph11.1 kmh 29.73 in1006.8 mb 0.00 in0.0 mm 0.00 in0.0 mm 0.00 in0.0 mm
09:30 PM 67.8°F19.9°C 63.2°F17.3°C 85% 2.2 mph NE3.5 kmh NE 6.9 mph11.1 kmh 29.74 in1007.1 mb 0.00 in0.0 mm 0.00 in0.0 mm 0.00 in0.0 mm
09:45 PM 67.5°F19.7°C 62.8°F17.1°C 85% 3.1 mph N5.0 kmh N 7.6 mph12.2 kmh 29.73 in1006.8 mb 0.00 in0.0 mm 0.00 in0.0 mm 0.00 in0.0 mm
10:00 PM 67.1°F19.5°C 62.8°F17.1°C 86% 2.2 mph NNE3.5 kmh NNE 5.4 mph8.7 kmh 29.73 in1006.8 mb 0.00 in0.0 mm 0.00 in0.0 mm 0.00 in0.0 mm
10:15 PM 66.7°F19.3°C 62.8°F17.1°C 87% 1.6 mph N2.6 kmh N 6.0 mph9.7 kmh 29.73 in1006.8 mb 0.00 in0.0 mm 0.00 in0.0 mm 0.00 in0.0 mm
10:30 PM 66.7°F19.3°C 62.8°F17.1°C 87% 3.8 mph N6.1 kmh N 6.9 mph11.1 kmh 29.73 in1006.8 mb 0.00 in0.0 mm 0.00 in0.0 mm 0.00 in0.0 mm
10:45 PM 66.6°F19.2°C 62.3°F16.8°C 86% 2.2 mph NE3.5 kmh NE 5.4 mph8.7 kmh 29.73 in1006.8 mb 0.00 in0.0 mm 0.00 in0.0 mm 0.00 in0.0 mm
11:00 PM 66.6°F19.2°C 62.3°F16.8°C 86% 1.6 mph NE2.6 kmh NE 5.4 mph8.7 kmh 29.74 in1007.1 mb 0.00 in0.0 mm 0.00 in0.0 mm 0.00 in0.0 mm
11:15 PM 66.7°F19.3°C 62.4°F16.9°C 86% 3.1 mph N5.0 kmh N 6.0 mph9.7 kmh 29.74 in1007.1 mb 0.00 in0.0 mm 0.00 in0.0 mm 0.00 in0.0 mm
11:30 PM 66.9°F19.4°C 62.6°F17.0°C 86% 3.8 mph N6.1 kmh N 5.4 mph8.7 kmh 29.74 in1007.1 mb 0.00 in0.0 mm 0.00 in0.0 mm 0.00 in0.0 mm
11:45 PM 67.1°F19.5°C 62.8°F17.1°C 86% 1.6 mph NNE2.6 kmh NNE 4.5 mph7.2 kmh 29.75 in1007.5 mb 0.00 in0.0 mm 0.00 in0.0 mm 0.00 in0.0 mm